N582JR KLVK-KPSP
Flight info
| Callsign | N582JR |
|---|---|
| Flight time | 1h 10m |
| Altitude | 45000 |
| Route | LVK3 ALTAM CLASN SIZLR4 |
| Aircraft | C25B/M-SBDE3FGJ4J7M3P2P3RWXYZ/LB1D1G1 |
Departure
| Time | 2026-05-07 00:51 |
|---|---|
| Airport | Livermore Municipal Airport (KLVK) |
Arrival
| Time | 2026-05-07 02:01 |
|---|---|
| Airport | Palm Springs International Airport (KPSP) |
| Time | Latitude | Longitude | Altitude | Speed | Heading |
|---|---|---|---|---|---|
| 2026-05-07 00:46 | 37.69556 | -121.81948 | 406 ft | 0 kts | 269° |
| 2026-05-07 00:48 | 37.69549 | -121.81967 | 406 ft | 7 kts | 224° |
| 2026-05-07 00:48 | 37.69493 | -121.81960 | 406 ft | 10 kts | 121° |
| 2026-05-07 00:48 | 37.69490 | -121.81865 | 406 ft | 12 kts | 91° |
| 2026-05-07 00:48 | 37.69488 | -121.81750 | 406 ft | 14 kts | 91° |
| 2026-05-07 00:49 | 37.69487 | -121.81615 | 406 ft | 16 kts | 90° |
| 2026-05-07 00:49 | 37.69485 | -121.81463 | 405 ft | 18 kts | 91° |
| 2026-05-07 00:49 | 37.69484 | -121.81296 | 405 ft | 20 kts | 90° |
| 2026-05-07 00:49 | 37.69479 | -121.81140 | 405 ft | 10 kts | 123° |
| 2026-05-07 00:50 | 37.69468 | -121.81130 | 405 ft | 0 kts | 173° |
| 2026-05-07 00:50 | 37.69461 | -121.81130 | 405 ft | 1 kts | 181° |
| 2026-05-07 00:50 | 37.69444 | -121.81131 | 405 ft | 9 kts | 182° |
| 2026-05-07 00:50 | 37.69387 | -121.81137 | 403 ft | 7 kts | 214° |
| 2026-05-07 00:51 | 37.69379 | -121.81216 | 404 ft | 37 kts | 269° |
| 2026-05-07 00:51 | 37.69371 | -121.82059 | 499 ft | 131 kts | 282° |
| 2026-05-07 00:51 | 37.69662 | -121.83377 | 1256 ft | 181 kts | 288° |
| 2026-05-07 00:51 | 37.70089 | -121.84946 | 2253 ft | 195 kts | 290° |
| 2026-05-07 00:52 | 37.70660 | -121.86565 | 3045 ft | 214 kts | 305° |
| 2026-05-07 00:52 | 37.72009 | -121.87669 | 3092 ft | 259 kts | 344° |
| 2026-05-07 00:52 | 37.73900 | -121.87540 | 3110 ft | 284 kts | 17° |
| 2026-05-07 00:52 | 37.75448 | -121.86114 | 3096 ft | 273 kts | 50° |
| 2026-05-07 00:53 | 37.76412 | -121.84136 | 3131 ft | 263 kts | 58° |
| 2026-05-07 00:53 | 37.77450 | -121.82192 | 3806 ft | 260 kts | 50° |
| 2026-05-07 00:53 | 37.78599 | -121.80405 | 4942 ft | 266 kts | 49° |
| 2026-05-07 00:53 | 37.79780 | -121.78559 | 5916 ft | 272 kts | 49° |
| 2026-05-07 00:54 | 37.80982 | -121.76681 | 6925 ft | 276 kts | 49° |
| 2026-05-07 00:54 | 37.81896 | -121.74561 | 7725 ft | 287 kts | 76° |
| 2026-05-07 00:54 | 37.81677 | -121.72047 | 8617 ft | 296 kts | 110° |
| 2026-05-07 00:54 | 37.80408 | -121.69986 | 9410 ft | 306 kts | 142° |
| 2026-05-07 00:55 | 37.78454 | -121.68876 | 10215 ft | 309 kts | 162° |
| 2026-05-07 00:55 | 37.76437 | -121.68060 | 10925 ft | 303 kts | 160° |
| 2026-05-07 00:55 | 37.74472 | -121.67059 | 11010 ft | 305 kts | 153° |
| 2026-05-07 00:55 | 37.72709 | -121.65605 | 11132 ft | 302 kts | 136° |
| 2026-05-07 00:56 | 37.71262 | -121.63742 | 11261 ft | 300 kts | 132° |
| 2026-05-07 00:56 | 37.69754 | -121.61913 | 11403 ft | 301 kts | 137° |
| 2026-05-07 00:56 | 37.68181 | -121.60281 | 12105 ft | 281 kts | 139° |
| 2026-05-07 00:56 | 37.66728 | -121.58758 | 13398 ft | 264 kts | 137° |
| 2026-05-07 00:57 | 37.65339 | -121.57253 | 14261 ft | 270 kts | 137° |
| 2026-05-07 00:57 | 37.63891 | -121.55687 | 15080 ft | 275 kts | 137° |
| 2026-05-07 00:57 | 37.62421 | -121.54101 | 15908 ft | 279 kts | 137° |
| 2026-05-07 00:57 | 37.60922 | -121.52500 | 16717 ft | 284 kts | 137° |
| 2026-05-07 00:58 | 37.59427 | -121.50892 | 17499 ft | 289 kts | 136° |
| 2026-05-07 00:58 | 37.57886 | -121.49237 | 18278 ft | 293 kts | 136° |
| 2026-05-07 00:58 | 37.56316 | -121.47558 | 19045 ft | 298 kts | 136° |
| 2026-05-07 00:58 | 37.54726 | -121.45851 | 19789 ft | 303 kts | 136° |
| 2026-05-07 00:59 | 37.51464 | -121.42364 | 21219 ft | 312 kts | 137° |
| 2026-05-07 00:59 | 37.49802 | -121.40580 | 21904 ft | 316 kts | 137° |
| 2026-05-07 00:59 | 37.48112 | -121.38771 | 22586 ft | 321 kts | 137° |
| 2026-05-07 01:00 | 37.46396 | -121.36941 | 23248 ft | 325 kts | 137° |
| 2026-05-07 01:00 | 37.44684 | -121.35112 | 23874 ft | 330 kts | 137° |
| 2026-05-07 01:00 | 37.42923 | -121.33230 | 24504 ft | 334 kts | 137° |
| 2026-05-07 01:00 | 37.41140 | -121.31332 | 25142 ft | 338 kts | 137° |
| 2026-05-07 01:01 | 37.39342 | -121.29413 | 25773 ft | 341 kts | 137° |
| 2026-05-07 01:01 | 37.37523 | -121.27477 | 26378 ft | 344 kts | 137° |
| 2026-05-07 01:01 | 37.35684 | -121.25524 | 27003 ft | 347 kts | 137° |
| 2026-05-07 01:01 | 37.33833 | -121.23549 | 27604 ft | 351 kts | 137° |
| 2026-05-07 01:02 | 37.31960 | -121.21558 | 28189 ft | 354 kts | 137° |
| 2026-05-07 01:02 | 37.30071 | -121.19555 | 28773 ft | 357 kts | 137° |
| 2026-05-07 01:02 | 37.28190 | -121.17558 | 29355 ft | 360 kts | 137° |
| 2026-05-07 01:02 | 37.26270 | -121.15520 | 29904 ft | 364 kts | 137° |
| 2026-05-07 01:03 | 37.24328 | -121.13456 | 30462 ft | 367 kts | 137° |
| 2026-05-07 01:03 | 37.22370 | -121.11390 | 31004 ft | 370 kts | 137° |
| 2026-05-07 01:03 | 37.20391 | -121.09293 | 31521 ft | 374 kts | 137° |
| 2026-05-07 01:03 | 37.18396 | -121.07177 | 32059 ft | 377 kts | 137° |
| 2026-05-07 01:04 | 37.16380 | -121.05052 | 32557 ft | 381 kts | 137° |
| 2026-05-07 01:04 | 37.14345 | -121.02900 | 33042 ft | 384 kts | 137° |
| 2026-05-07 01:04 | 37.12299 | -121.00744 | 33533 ft | 387 kts | 137° |
| 2026-05-07 01:04 | 37.10261 | -120.98590 | 33982 ft | 390 kts | 137° |
| 2026-05-07 01:05 | 37.08171 | -120.96391 | 34441 ft | 393 kts | 137° |
| 2026-05-07 01:05 | 37.06075 | -120.94180 | 34877 ft | 396 kts | 137° |
| 2026-05-07 01:05 | 37.03948 | -120.91946 | 35297 ft | 399 kts | 137° |
| 2026-05-07 01:05 | 37.01818 | -120.89704 | 35705 ft | 402 kts | 137° |
| 2026-05-07 01:06 | 36.99689 | -120.87468 | 36091 ft | 405 kts | 137° |
| 2026-05-07 01:06 | 36.97524 | -120.85193 | 36473 ft | 407 kts | 137° |
| 2026-05-07 01:06 | 36.95340 | -120.82902 | 36799 ft | 410 kts | 137° |
| 2026-05-07 01:06 | 36.93144 | -120.80597 | 37188 ft | 411 kts | 136° |
| 2026-05-07 01:07 | 36.90973 | -120.78325 | 37576 ft | 412 kts | 137° |
| 2026-05-07 01:07 | 36.88765 | -120.76015 | 37954 ft | 413 kts | 136° |
| 2026-05-07 01:07 | 36.86556 | -120.73705 | 38317 ft | 415 kts | 136° |
| 2026-05-07 01:07 | 36.84332 | -120.71377 | 38603 ft | 418 kts | 136° |
| 2026-05-07 01:08 | 36.82122 | -120.69071 | 38897 ft | 420 kts | 136° |
| 2026-05-07 01:08 | 36.79865 | -120.66717 | 39159 ft | 422 kts | 136° |
| 2026-05-07 01:08 | 36.77609 | -120.64365 | 39423 ft | 425 kts | 136° |
| 2026-05-07 01:08 | 36.75335 | -120.61992 | 39655 ft | 427 kts | 136° |
| 2026-05-07 01:09 | 36.73046 | -120.59611 | 39883 ft | 429 kts | 136° |
| 2026-05-07 01:09 | 36.70780 | -120.57256 | 40096 ft | 432 kts | 137° |
| 2026-05-07 01:09 | 36.68469 | -120.54856 | 40313 ft | 433 kts | 136° |
| 2026-05-07 01:09 | 36.66152 | -120.52445 | 40509 ft | 435 kts | 137° |
| 2026-05-07 01:10 | 36.63823 | -120.50037 | 40630 ft | 435 kts | 137° |
| 2026-05-07 01:10 | 36.59184 | -120.45224 | 40632 ft | 436 kts | 136° |
| 2026-05-07 01:11 | 36.54539 | -120.40419 | 40833 ft | 431 kts | 137° |
| 2026-05-07 01:11 | 36.52256 | -120.38067 | 41086 ft | 425 kts | 137° |
| 2026-05-07 01:11 | 36.49985 | -120.35712 | 41084 ft | 424 kts | 136° |
| 2026-05-07 01:12 | 36.45439 | -120.31024 | 41083 ft | 423 kts | 137° |
| 2026-05-07 01:12 | 36.40951 | -120.26403 | 41085 ft | 420 kts | 136° |
| 2026-05-07 01:13 | 36.36460 | -120.21777 | 41082 ft | 420 kts | 136° |
| 2026-05-07 01:13 | 36.31919 | -120.17122 | 41084 ft | 426 kts | 136° |
| 2026-05-07 01:14 | 36.27367 | -120.12453 | 41087 ft | 429 kts | 136° |
| 2026-05-07 01:14 | 36.22749 | -120.07729 | 41092 ft | 432 kts | 136° |
| 2026-05-07 01:15 | 36.18102 | -120.02984 | 41092 ft | 434 kts | 136° |
| 2026-05-07 01:15 | 36.13436 | -119.98223 | 41095 ft | 435 kts | 136° |
| 2026-05-07 01:16 | 36.08789 | -119.93493 | 41091 ft | 435 kts | 137° |
| 2026-05-07 01:16 | 36.04150 | -119.88774 | 41091 ft | 430 kts | 137° |
| 2026-05-07 01:17 | 35.99548 | -119.84102 | 41085 ft | 426 kts | 137° |
| 2026-05-07 01:17 | 35.94984 | -119.79476 | 41084 ft | 423 kts | 137° |
| 2026-05-07 01:18 | 35.90442 | -119.74879 | 41083 ft | 421 kts | 137° |
| 2026-05-07 01:18 | 35.85945 | -119.70335 | 41084 ft | 420 kts | 136° |
| 2026-05-07 01:19 | 35.81432 | -119.65780 | 41081 ft | 419 kts | 137° |
| 2026-05-07 01:19 | 35.76910 | -119.61223 | 41080 ft | 422 kts | 136° |
| 2026-05-07 01:20 | 35.72349 | -119.56636 | 41082 ft | 424 kts | 136° |
| 2026-05-07 01:20 | 35.67802 | -119.52069 | 41086 ft | 426 kts | 137° |
| 2026-05-07 01:21 | 35.63620 | -119.47013 | 41080 ft | 421 kts | 127° |
| 2026-05-07 01:21 | 35.59656 | -119.41695 | 41084 ft | 422 kts | 128° |
| 2026-05-07 01:22 | 35.55713 | -119.36355 | 41087 ft | 422 kts | 128° |
| 2026-05-07 01:22 | 35.51779 | -119.31056 | 41089 ft | 423 kts | 128° |
| 2026-05-07 01:23 | 35.47814 | -119.25717 | 41090 ft | 423 kts | 128° |
| 2026-05-07 01:23 | 35.43844 | -119.20383 | 41091 ft | 423 kts | 128° |
| 2026-05-07 01:24 | 35.39877 | -119.15060 | 41030 ft | 424 kts | 128° |
| 2026-05-07 01:24 | 35.37858 | -119.12349 | 40581 ft | 434 kts | 128° |
| 2026-05-07 01:24 | 35.35862 | -119.09679 | 40146 ft | 427 kts | 128° |
| 2026-05-07 01:24 | 35.33873 | -119.07033 | 39702 ft | 417 kts | 127° |
| 2026-05-07 01:25 | 35.31936 | -119.04438 | 39254 ft | 408 kts | 127° |
| 2026-05-07 01:25 | 35.30034 | -119.01897 | 38803 ft | 400 kts | 127° |
| 2026-05-07 01:25 | 35.28161 | -118.99421 | 38353 ft | 395 kts | 127° |
| 2026-05-07 01:25 | 35.26300 | -118.96955 | 37901 ft | 393 kts | 127° |
| 2026-05-07 01:26 | 35.24448 | -118.94494 | 37448 ft | 395 kts | 127° |
| 2026-05-07 01:26 | 35.22593 | -118.92035 | 37013 ft | 402 kts | 127° |
| 2026-05-07 01:26 | 35.20682 | -118.89507 | 36572 ft | 408 kts | 127° |
| 2026-05-07 01:26 | 35.18746 | -118.86948 | 36114 ft | 412 kts | 127° |
| 2026-05-07 01:27 | 35.16783 | -118.84361 | 35528 ft | 416 kts | 127° |
| 2026-05-07 01:27 | 35.14818 | -118.81770 | 34912 ft | 414 kts | 127° |
| 2026-05-07 01:27 | 35.12861 | -118.79193 | 34297 ft | 413 kts | 127° |
| 2026-05-07 01:27 | 35.10933 | -118.76647 | 33949 ft | 404 kts | 127° |
| 2026-05-07 01:28 | 35.09062 | -118.74187 | 33593 ft | 397 kts | 127° |
| 2026-05-07 01:28 | 35.07196 | -118.71728 | 33229 ft | 392 kts | 127° |
| 2026-05-07 01:28 | 35.05334 | -118.69277 | 32866 ft | 396 kts | 127° |
| 2026-05-07 01:28 | 35.03457 | -118.66806 | 32499 ft | 400 kts | 127° |
| 2026-05-07 01:29 | 35.01552 | -118.64312 | 32125 ft | 403 kts | 127° |
| 2026-05-07 01:29 | 34.99643 | -118.61803 | 31749 ft | 405 kts | 127° |
| 2026-05-07 01:29 | 34.97717 | -118.59276 | 31368 ft | 407 kts | 127° |
| 2026-05-07 01:29 | 34.95786 | -118.56749 | 30991 ft | 407 kts | 127° |
| 2026-05-07 01:30 | 34.93853 | -118.54226 | 30612 ft | 407 kts | 128° |
| 2026-05-07 01:30 | 34.91953 | -118.51729 | 30231 ft | 407 kts | 128° |
| 2026-05-07 01:30 | 34.90022 | -118.49206 | 29849 ft | 407 kts | 128° |
| 2026-05-07 01:30 | 34.88086 | -118.46685 | 29464 ft | 410 kts | 128° |
| 2026-05-07 01:31 | 34.86133 | -118.44121 | 29074 ft | 415 kts | 128° |
| 2026-05-07 01:31 | 34.84154 | -118.41546 | 28673 ft | 419 kts | 128° |
| 2026-05-07 01:31 | 34.82159 | -118.38947 | 28277 ft | 421 kts | 128° |
| 2026-05-07 01:31 | 34.80156 | -118.36340 | 27863 ft | 423 kts | 128° |
| 2026-05-07 01:32 | 34.78148 | -118.33718 | 27456 ft | 423 kts | 127° |
| 2026-05-07 01:32 | 34.76357 | -118.30961 | 27050 ft | 420 kts | 122° |
| 2026-05-07 01:32 | 34.74571 | -118.28151 | 26654 ft | 421 kts | 123° |
| 2026-05-07 01:32 | 34.72752 | -118.25370 | 26248 ft | 422 kts | 124° |
| 2026-05-07 01:33 | 34.70925 | -118.22569 | 25852 ft | 424 kts | 123° |
| 2026-05-07 01:33 | 34.69115 | -118.19742 | 25455 ft | 425 kts | 123° |
| 2026-05-07 01:33 | 34.67290 | -118.16914 | 25059 ft | 426 kts | 124° |
| 2026-05-07 01:33 | 34.65456 | -118.14087 | 24662 ft | 426 kts | 124° |
| 2026-05-07 01:34 | 34.63617 | -118.11259 | 24270 ft | 426 kts | 124° |
| 2026-05-07 01:34 | 34.61789 | -118.08427 | 23877 ft | 426 kts | 124° |
| 2026-05-07 01:34 | 34.59980 | -118.05645 | 23486 ft | 426 kts | 124° |
| 2026-05-07 01:34 | 34.58190 | -118.02803 | 23087 ft | 421 kts | 120° |
| 2026-05-07 01:35 | 34.56803 | -117.99712 | 22698 ft | 416 kts | 111° |
| 2026-05-07 01:35 | 34.55514 | -117.96573 | 22313 ft | 416 kts | 112° |
| 2026-05-07 01:35 | 34.54223 | -117.93439 | 21919 ft | 415 kts | 112° |
| 2026-05-07 01:35 | 34.52951 | -117.90299 | 21530 ft | 415 kts | 112° |
| 2026-05-07 01:36 | 34.51668 | -117.87169 | 21145 ft | 414 kts | 112° |
| 2026-05-07 01:36 | 34.50390 | -117.84048 | 20764 ft | 413 kts | 112° |
| 2026-05-07 01:36 | 34.49106 | -117.80938 | 20390 ft | 412 kts | 112° |
| 2026-05-07 01:36 | 34.47837 | -117.77832 | 20010 ft | 411 kts | 112° |
| 2026-05-07 01:37 | 34.46581 | -117.74780 | 19636 ft | 410 kts | 112° |
| 2026-05-07 01:37 | 34.45311 | -117.71698 | 19254 ft | 407 kts | 112° |
| 2026-05-07 01:37 | 34.44050 | -117.68650 | 19025 ft | 401 kts | 112° |
| 2026-05-07 01:37 | 34.42824 | -117.65641 | 18803 ft | 396 kts | 111° |
| 2026-05-07 01:38 | 34.41621 | -117.62656 | 18549 ft | 394 kts | 112° |
| 2026-05-07 01:38 | 34.40400 | -117.59690 | 18296 ft | 392 kts | 112° |
| 2026-05-07 01:38 | 34.39197 | -117.56736 | 18036 ft | 390 kts | 111° |
| 2026-05-07 01:38 | 34.37991 | -117.53804 | 17783 ft | 389 kts | 112° |
| 2026-05-07 01:39 | 34.36794 | -117.50874 | 17516 ft | 387 kts | 112° |
| 2026-05-07 01:39 | 34.35594 | -117.47959 | 17259 ft | 386 kts | 112° |
| 2026-05-07 01:39 | 34.34408 | -117.45056 | 17019 ft | 384 kts | 112° |
| 2026-05-07 01:39 | 34.33215 | -117.42164 | 16769 ft | 384 kts | 112° |
| 2026-05-07 01:40 | 34.32032 | -117.39280 | 16517 ft | 383 kts | 112° |
| 2026-05-07 01:40 | 34.30860 | -117.36436 | 16265 ft | 383 kts | 112° |
| 2026-05-07 01:40 | 34.29657 | -117.33576 | 16097 ft | 380 kts | 114° |
| 2026-05-07 01:40 | 34.28365 | -117.30817 | 16087 ft | 374 kts | 115° |
| 2026-05-07 01:41 | 34.27101 | -117.28083 | 16083 ft | 370 kts | 115° |
| 2026-05-07 01:41 | 34.25859 | -117.25373 | 16086 ft | 367 kts | 115° |
| 2026-05-07 01:41 | 34.24617 | -117.22684 | 16096 ft | 365 kts | 115° |
| 2026-05-07 01:41 | 34.23375 | -117.20021 | 16109 ft | 363 kts | 115° |
| 2026-05-07 01:42 | 34.22143 | -117.17359 | 16107 ft | 362 kts | 115° |
| 2026-05-07 01:42 | 34.20918 | -117.14711 | 16111 ft | 361 kts | 115° |
| 2026-05-07 01:42 | 34.19703 | -117.12104 | 16112 ft | 360 kts | 115° |
| 2026-05-07 01:42 | 34.18483 | -117.09468 | 16122 ft | 359 kts | 115° |
| 2026-05-07 01:43 | 34.17263 | -117.06852 | 16130 ft | 358 kts | 115° |
| 2026-05-07 01:43 | 34.16038 | -117.04235 | 16140 ft | 358 kts | 116° |
| 2026-05-07 01:43 | 34.14783 | -117.01635 | 16077 ft | 360 kts | 116° |
| 2026-05-07 01:43 | 34.13516 | -116.99003 | 15903 ft | 364 kts | 116° |
| 2026-05-07 01:44 | 34.12254 | -116.96337 | 15692 ft | 368 kts | 116° |
| 2026-05-07 01:44 | 34.10969 | -116.93652 | 15453 ft | 370 kts | 116° |
| 2026-05-07 01:44 | 34.09703 | -116.90999 | 15229 ft | 370 kts | 117° |
| 2026-05-07 01:44 | 34.08420 | -116.88326 | 15187 ft | 366 kts | 116° |
| 2026-05-07 01:45 | 34.07208 | -116.85691 | 15186 ft | 350 kts | 115° |
| 2026-05-07 01:45 | 34.06040 | -116.83171 | 14951 ft | 340 kts | 116° |
| 2026-05-07 01:45 | 34.04876 | -116.80715 | 14617 ft | 335 kts | 115° |
| 2026-05-07 01:45 | 34.03750 | -116.78263 | 14265 ft | 332 kts | 115° |
| 2026-05-07 01:46 | 34.02890 | -116.75719 | 13889 ft | 325 kts | 102° |
| 2026-05-07 01:46 | 34.02262 | -116.73120 | 13572 ft | 321 kts | 105° |
| 2026-05-07 01:46 | 34.01530 | -116.70649 | 13289 ft | 313 kts | 105° |
| 2026-05-07 01:46 | 34.00872 | -116.68180 | 12972 ft | 307 kts | 103° |
| 2026-05-07 01:47 | 34.00246 | -116.65745 | 12659 ft | 302 kts | 104° |
| 2026-05-07 01:47 | 33.99604 | -116.63393 | 12461 ft | 290 kts | 104° |
| 2026-05-07 01:47 | 33.98984 | -116.61106 | 12106 ft | 284 kts | 104° |
| 2026-05-07 01:47 | 33.98395 | -116.58845 | 11718 ft | 281 kts | 103° |
| 2026-05-07 01:48 | 33.97790 | -116.56616 | 11339 ft | 279 kts | 106° |
| 2026-05-07 01:48 | 33.96877 | -116.54563 | 11060 ft | 278 kts | 122° |
| 2026-05-07 01:48 | 33.95665 | -116.52840 | 11037 ft | 263 kts | 133° |
| 2026-05-07 01:48 | 33.94339 | -116.51399 | 11027 ft | 250 kts | 133° |
| 2026-05-07 01:49 | 33.93139 | -116.49987 | 11020 ft | 242 kts | 132° |
| 2026-05-07 01:49 | 33.91915 | -116.48575 | 11009 ft | 245 kts | 133° |
| 2026-05-07 01:49 | 33.90667 | -116.47146 | 10892 ft | 253 kts | 133° |
| 2026-05-07 01:49 | 33.89356 | -116.45659 | 10595 ft | 265 kts | 133° |
| 2026-05-07 01:50 | 33.87996 | -116.44106 | 10247 ft | 271 kts | 134° |
| 2026-05-07 01:50 | 33.86814 | -116.42372 | 9881 ft | 267 kts | 117° |
| 2026-05-07 01:50 | 33.86023 | -116.40374 | 9537 ft | 263 kts | 112° |
| 2026-05-07 01:50 | 33.85544 | -116.38306 | 9167 ft | 256 kts | 88° |
| 2026-05-07 01:51 | 33.85516 | -116.36217 | 8868 ft | 250 kts | 104° |
| 2026-05-07 01:51 | 33.84573 | -116.34465 | 8567 ft | 253 kts | 131° |
| 2026-05-07 01:51 | 33.83431 | -116.32881 | 8259 ft | 255 kts | 127° |
| 2026-05-07 01:51 | 33.82492 | -116.31073 | 7930 ft | 255 kts | 116° |
| 2026-05-07 01:52 | 33.81768 | -116.29135 | 7595 ft | 252 kts | 112° |
| 2026-05-07 01:52 | 33.81061 | -116.27248 | 7262 ft | 244 kts | 115° |
| 2026-05-07 01:52 | 33.80275 | -116.25487 | 6933 ft | 233 kts | 125° |
| 2026-05-07 01:52 | 33.79132 | -116.24237 | 6629 ft | 212 kts | 144° |
| 2026-05-07 01:53 | 33.77871 | -116.23503 | 6355 ft | 195 kts | 163° |
| 2026-05-07 01:53 | 33.76584 | -116.23233 | 6104 ft | 182 kts | 178° |
| 2026-05-07 01:53 | 33.75354 | -116.23402 | 5881 ft | 175 kts | 193° |
| 2026-05-07 01:53 | 33.74244 | -116.23906 | 5639 ft | 169 kts | 209° |
| 2026-05-07 01:54 | 33.73296 | -116.24692 | 5414 ft | 164 kts | 223° |
| 2026-05-07 01:54 | 33.72554 | -116.25719 | 5204 ft | 163 kts | 235° |
| 2026-05-07 01:54 | 33.72005 | -116.26891 | 4991 ft | 164 kts | 245° |
| 2026-05-07 01:54 | 33.71558 | -116.28149 | 4773 ft | 163 kts | 252° |
| 2026-05-07 01:55 | 33.71266 | -116.29470 | 4559 ft | 164 kts | 258° |
| 2026-05-07 01:55 | 33.71099 | -116.30821 | 4343 ft | 164 kts | 267° |
| 2026-05-07 01:55 | 33.71070 | -116.32183 | 4131 ft | 163 kts | 272° |
| 2026-05-07 01:55 | 33.71198 | -116.33543 | 3916 ft | 163 kts | 280° |
| 2026-05-07 01:56 | 33.71440 | -116.34852 | 3699 ft | 159 kts | 288° |
| 2026-05-07 01:56 | 33.71814 | -116.36088 | 3498 ft | 155 kts | 294° |
| 2026-05-07 01:56 | 33.72261 | -116.37257 | 3291 ft | 153 kts | 295° |
| 2026-05-07 01:56 | 33.72659 | -116.38374 | 3092 ft | 139 kts | 294° |
| 2026-05-07 01:57 | 33.73033 | -116.39385 | 2911 ft | 128 kts | 295° |
| 2026-05-07 01:57 | 33.73387 | -116.40334 | 2744 ft | 121 kts | 293° |
| 2026-05-07 01:57 | 33.73721 | -116.41246 | 2585 ft | 119 kts | 294° |
| 2026-05-07 01:57 | 33.74071 | -116.42154 | 2434 ft | 119 kts | 296° |
| 2026-05-07 01:58 | 33.74632 | -116.42886 | 2286 ft | 123 kts | 324° |
| 2026-05-07 01:58 | 33.75321 | -116.43488 | 2145 ft | 119 kts | 316° |
| 2026-05-07 01:58 | 33.75938 | -116.44138 | 1986 ft | 120 kts | 320° |
| 2026-05-07 01:58 | 33.76617 | -116.44752 | 1822 ft | 124 kts | 320° |
| 2026-05-07 01:59 | 33.77281 | -116.45415 | 1655 ft | 122 kts | 322° |
| 2026-05-07 01:59 | 33.77930 | -116.46010 | 1475 ft | 116 kts | 324° |
| 2026-05-07 01:59 | 33.78545 | -116.46596 | 1319 ft | 110 kts | 322° |
| 2026-05-07 01:59 | 33.79133 | -116.47179 | 1195 ft | 108 kts | 322° |
| 2026-05-07 02:00 | 33.79711 | -116.47736 | 1129 ft | 107 kts | 323° |
| 2026-05-07 02:00 | 33.80269 | -116.48325 | 1038 ft | 106 kts | 320° |
| 2026-05-07 02:00 | 33.80836 | -116.48894 | 839 ft | 108 kts | 324° |
| 2026-05-07 02:00 | 33.81450 | -116.49423 | 624 ft | 107 kts | 325° |
| 2026-05-07 02:01 | 33.82028 | -116.49942 | 459 ft | 101 kts | 324° |
| 2026-05-07 02:01 | 33.82559 | -116.50408 | 413 ft | 84 kts | 323° |
| 2026-05-07 02:01 | 33.82893 | -116.50702 | 431 ft | 42 kts | 324° |
| 2026-05-07 02:01 | 33.83071 | -116.50852 | 429 ft | 26 kts | 324° |
| 2026-05-07 02:02 | 33.83207 | -116.50970 | 441 ft | 23 kts | 322° |
| 2026-05-07 02:02 | 33.83319 | -116.51097 | 442 ft | 22 kts | 293° |
| 2026-05-07 02:02 | 33.83262 | -116.51198 | 443 ft | 15 kts | 184° |
| 2026-05-07 02:02 | 33.83157 | -116.51150 | 438 ft | 19 kts | 142° |
| 2026-05-07 02:03 | 33.83036 | -116.51043 | 437 ft | 24 kts | 144° |
| 2026-05-07 02:03 | 33.82902 | -116.50923 | 432 ft | 21 kts | 141° |
| 2026-05-07 02:03 | 33.82809 | -116.50828 | 426 ft | 17 kts | 143° |
| 2026-05-07 02:03 | 33.82710 | -116.50741 | 420 ft | 18 kts | 143° |
| 2026-05-07 02:04 | 33.82605 | -116.50685 | 421 ft | 11 kts | 215° |
| 2026-05-07 02:04 | 33.82540 | -116.50751 | 425 ft | 14 kts | 245° |
| 2026-05-07 02:04 | 33.82537 | -116.50872 | 420 ft | 13 kts | 288° |
| 2026-05-07 02:04 | 33.82606 | -116.50899 | 428 ft | 10 kts | 2° |
| 2026-05-07 02:05 | 33.82658 | -116.50910 | 431 ft | 4 kts | 291° |
| 2026-05-07 02:05 | 33.82659 | -116.50929 | 426 ft | 0 kts | 265° |